Time;durP1;ratioP1;P1;durP2;ratioP2;P2;SDS_P1;SDS_P2;PMS_P1;PMS_P2;Temp;Humidity;BMP_temperature;BMP_pressure;BME280_temperature;BME280_humidity;BME280_pressure;Samples;Min_cycle;Max_cycle;Signal;HPM_P1;HPM_P2
2022/11/18 00:01:22;;;;;;;6.65;3.60;;;;;;;7.07;100.00;99219.66;4990470;28;20395;-64
2022/11/18 00:03:48;;;;;;;5.90;3.40;;;;;;;6.62;100.00;99159.75;4990172;28;20468;-64
2022/11/18 00:06:16;;;;;;;7.20;3.55;;;;;;;6.96;100.00;99212.28;4988992;28;20027;-65
2022/11/18 00:08:42;;;;;;;5.35;3.42;;;;;;;7.00;100.00;99219.09;4990147;28;20447;-64
2022/11/18 00:11:09;;;;;;;5.97;3.80;;;;;;;6.76;100.00;99184.41;4990305;28;20117;-64
2022/11/18 00:16:20;;;;;;;5.35;3.53;;;;;;;7.02;100.00;99243.41;4990292;28;20569;-64
2022/11/18 00:18:45;;;;;;;6.75;3.78;;;;;;;6.96;100.00;99238.44;4989032;28;20043;-64
2022/11/18 00:21:11;;;;;;;5.05;3.50;;;;;;;6.90;100.00;99237.84;4989968;28;20034;-62
2022/11/18 00:23:37;;;;;;;5.90;3.47;;;;;;;6.80;100.00;99232.16;4988655;28;20080;-64
2022/11/18 00:26:11;;;;;;;5.28;3.65;;;;;;;6.57;100.00;99193.91;4988797;28;20051;-63
2022/11/18 00:28:37;;;;;;;5.25;3.83;;;;;;;6.98;100.00;99256.69;4989921;28;20026;-64
2022/11/18 00:31:05;;;;;;;6.22;3.33;;;;;;;6.60;100.00;99200.78;4989671;28;20551;-63
2022/11/18 00:33:30;;;;;;;8.25;4.20;;;;;;;6.62;100.00;99212.03;4988813;28;20038;-63
2022/11/18 00:35:56;;;;;;;5.55;4.07;;;;;;;6.83;100.00;99258.19;4988726;28;20493;-64
2022/11/18 00:38:22;;;;;;;6.40;4.35;;;;;;;6.86;100.00;99262.47;4988516;28;20035;-63
2022/11/18 00:40:47;;;;;;;5.25;4.20;;;;;;;6.93;100.00;99284.81;4989749;28;20531;-64
2022/11/18 00:43:12;;;;;;;7.70;4.55;;;;;;;6.53;100.00;99212.41;4989924;28;20343;-64
2022/11/18 00:45:37;;;;;;;5.78;4.30;;;;;;;6.85;100.00;99279.91;4989659;28;20038;-63
2022/11/18 00:48:03;;;;;;;10.02;5.90;;;;;;;6.79;100.00;99269.72;4989920;28;20069;-63
2022/11/18 00:50:28;;;;;;;7.57;5.28;;;;;;;6.52;100.00;99224.63;4989921;28;20038;-63
2022/11/18 00:52:54;;;;;;;7.80;5.25;;;;;;;6.90;100.00;99303.25;4989573;28;20045;-63
2022/11/18 00:55:19;;;;;;;6.88;5.43;;;;;;;6.85;100.00;99298.22;4990010;28;20038;-63
2022/11/18 00:57:44;;;;;;;10.48;5.63;;;;;;;6.82;100.00;99298.34;4989535;28;20084;-63
2022/11/18 01:00:10;;;;;;;7.45;5.93;;;;;;;6.78;100.00;99308.06;4989269;28;20099;-64
2022/11/18 01:02:36;;;;;;;7.82;5.65;;;;;;;6.79;100.00;99308.94;4989547;28;20114;-63
2022/11/18 01:05:02;;;;;;;7.05;6.32;;;;;;;6.42;100.00;99259.06;4989669;28;20058;-63
2022/11/18 01:07:27;;;;;;;6.70;5.85;;;;;;;6.41;100.00;99271.28;4991586;28;20062;-64
2022/11/18 01:09:52;;;;;;;8.77;6.07;;;;;;;6.76;100.00;99322.13;4993033;28;20038;-64
2022/11/18 01:15:01;;;;;;;9.35;5.82;;;;;;;6.70;100.00;99330.22;4992833;28;20183;-64
2022/11/18 01:17:30;;;;;;;10.13;6.30;;;;;;;6.69;100.00;99338.97;4993037;28;20518;-66
2022/11/18 01:19:55;;;;;;;9.50;6.90;;;;;;;6.67;100.00;99341.66;4991675;28;20064;-64
2022/11/18 01:22:21;;;;;;;11.40;7.68;;;;;;;6.66;100.00;99318.19;4992917;28;20039;-64
2022/11/18 01:24:46;;;;;;;10.45;7.22;;;;;;;6.68;100.00;99334.69;4992473;28;20490;-64
2022/11/18 01:27:11;;;;;;;10.80;7.07;;;;;;;6.23;100.00;99272.00;4992446;28;20051;-64
2022/11/18 01:29:37;;;;;;;10.27;7.40;;;;;;;6.63;100.00;99360.13;4992564;28;20056;-65
2022/11/18 01:32:02;;;;;;;10.93;8.02;;;;;;;6.63;100.00;99352.28;4991399;28;20042;-64
2022/11/18 01:34:28;;;;;;;13.30;7.47;;;;;;;6.58;100.00;99335.94;4992638;28;20042;-64
2022/11/18 01:36:55;;;;;;;10.27;7.75;;;;;;;6.66;100.00;99360.00;4992273;28;20042;-64
2022/11/18 01:39:20;;;;;;;11.52;7.80;;;;;;;6.61;100.00;99354.97;4990558;28;20038;-64
2022/11/18 01:41:46;;;;;;;10.98;7.93;;;;;;;6.55;100.00;99344.75;4990553;28;20030;-63
2022/11/18 01:44:48;;;;;;;12.32;8.30;;;;;;;6.55;100.00;99362.19;4992320;28;20034;-64
2022/11/18 01:47:14;;;;;;;11.75;7.95;;;;;;;6.57;100.00;99356.00;4992326;28;20026;-63
2022/11/18 01:49:39;;;;;;;15.30;8.20;;;;;;;6.50;100.00;99341.50;4990913;28;20386;-63
2022/11/18 01:52:05;;;;;;;13.68;8.43;;;;;;;6.29;100.00;99312.72;4992105;28;20136;-64
2022/11/18 01:54:33;;;;;;;18.38;9.25;;;;;;;6.25;100.00;99292.88;4992263;28;20411;-65
2022/11/18 01:57:02;;;;;;;12.93;8.60;;;;;;;6.65;100.00;99353.97;4990658;28;20470;-63
2022/11/18 01:59:33;;;;;;;11.80;8.70;;;;;;;6.71;100.00;99361.53;4992255;28;20113;-63
2022/11/18 02:01:59;;;;;;;12.40;8.05;;;;;;;6.68;100.00;99353.81;4990760;28;20034;-63
2022/11/18 02:04:25;;;;;;;12.32;8.20;;;;;;;6.41;100.00;99300.03;4990707;28;20099;-64
2022/11/18 02:06:51;;;;;;;11.85;8.20;;;;;;;6.80;100.00;99373.38;4990737;28;20046;-64
2022/11/18 02:09:17;;;;;;;12.90;8.27;;;;;;;6.41;100.00;99317.47;4990647;28;20072;-64
2022/11/18 02:11:53;;;;;;;10.93;8.35;;;;;;;6.74;100.00;99384.94;4990711;28;20046;-63
2022/11/18 02:14:24;;;;;;;14.55;9.63;;;;;;;6.31;100.00;99326.56;4992361;28;20175;-63
2022/11/18 02:17:14;;;;;;;12.38;9.13;;;;;;;6.62;100.00;99388.06;4990640;28;20481;-64
2022/11/18 02:19:45;;;;;;;13.98;8.65;;;;;;;6.56;100.00;99390.91;4990603;28;20466;-65
2022/11/18 02:22:38;;;;;;;12.65;9.90;;;;;;;6.56;100.00;99393.53;4991742;28;20386;-65
2022/11/18 02:25:20;;;;;;;13.88;9.95;;;;;;;6.44;100.00;99385.31;4990337;28;20401;-64
2022/11/18 02:28:10;;;;;;;13.77;10.30;;;;;;;6.50;100.00;99401.59;4990521;28;20046;-64
2022/11/18 02:30:52;;;;;;;14.20;10.00;;;;;;;6.45;100.00;99402.69;4991888;28;20046;-63
2022/11/18 02:33:23;;;;;;;15.52;10.15;;;;;;;6.25;100.00;99381.69;4991649;28;20045;-64
2022/11/18 02:35:56;;;;;;;16.60;10.60;;;;;;;6.29;100.00;99391.09;4990254;28;20493;-63
2022/11/18 02:38:26;;;;;;;15.32;10.90;;;;;;;6.36;100.00;99409.13;4990326;28;20114;-64
2022/11/18 02:40:54;;;;;;;17.60;10.88;;;;;;;6.10;100.00;99373.50;4990239;28;20463;-62
2022/11/18 02:43:25;;;;;;;15.27;10.75;;;;;;;6.37;100.00;99420.41;4991471;28;20044;-63
2022/11/18 02:45:53;;;;;;;15.73;11.32;;;;;;;6.33;100.00;99413.63;4991375;28;20041;-63
2022/11/18 02:48:21;;;;;;;18.77;10.95;;;;;;;5.95;100.00;99354.97;4990255;28;20088;-64
2022/11/18 02:50:48;;;;;;;21.67;11.70;;;;;;;5.95;100.00;99352.34;4990253;28;20058;-65
2022/11/18 02:53:16;;;;;;;17.98;11.73;;;;;;;5.84;100.00;99339.63;4989958;28;20026;-64
2022/11/18 02:55:43;;;;;;;18.15;10.90;;;;;;;6.33;100.00;99424.94;4989812;28;20030;-65
2022/11/18 02:58:09;;;;;;;13.65;10.95;;;;;;;6.23;100.00;99406.13;4990098;28;20053;-64
2022/11/18 03:00:35;;;;;;;18.88;11.25;;;;;;;6.38;100.00;99427.34;4990025;28;20036;-65
2022/11/18 03:03:22;;;;;;;17.02;10.93;;;;;;;6.08;100.00;99367.50;4989745;28;20459;-63
2022/11/18 03:06:13;;;;;;;16.77;10.52;;;;;;;6.46;100.00;99423.53;4990028;28;20041;-64
2022/11/18 03:08:44;;;;;;;15.20;10.73;;;;;;;6.44;100.00;99417.53;4998526;28;20129;-64
2022/11/18 03:11:09;;;;;;;;;;;;;;;6.50;100.00;99430.38;4991281;28;20026;-64
2022/11/18 03:13:42;;;;;;;18.93;10.47;;;;;;;6.41;100.00;99417.63;4991079;28;20028;-65
2022/11/18 03:16:16;;;;;;;16.80;11.05;;;;;;;6.46;100.00;99431.38;4989450;28;20729;-63
2022/11/18 03:18:52;;;;;;;18.95;10.75;;;;;;;6.45;100.00;99427.03;4989861;28;20069;-65
2022/11/18 03:21:34;;;;;;;16.02;10.57;;;;;;;6.29;100.00;99407.66;4989657;28;20030;-64
2022/11/18 03:24:19;;;;;;;20.27;10.60;;;;;;;5.99;100.00;99367.84;4990814;28;20378;-64
2022/11/18 03:26:50;;;;;;;15.18;10.77;;;;;;;6.29;100.00;99423.31;4972974;28;20054;-63
2022/11/18 03:29:29;;;;;;;16.50;11.35;;;;;;;6.44;100.00;99450.66;4988752;28;20072;-63
2022/11/18 03:32:01;;;;;;;22.20;11.48;;;;;;;6.15;100.00;99387.28;4990474;28;20038;-65
2022/11/18 03:34:30;;;;;;;21.75;11.35;;;;;;;6.62;100.00;99449.97;4989357;28;20037;-64
2022/11/18 03:36:59;;;;;;;24.30;12.45;;;;;;;6.65;100.00;99450.69;4989228;28;20039;-63
2022/11/18 03:39:25;;;;;;;20.75;12.63;;;;;;;6.23;100.00;99373.91;4989251;28;20113;-63
2022/11/18 03:41:54;;;;;;;20.70;11.30;;;;;;;6.77;100.00;99449.38;4972970;28;20065;-64
2022/11/18 03:44:23;;;;;;;16.80;11.75;;;;;;;6.87;100.00;99457.69;4989470;28;20080;-64
2022/11/18 03:46:59;;;;;;;18.52;11.20;;;;;;;6.58;100.00;99396.94;4989403;28;20035;-65
2022/11/18 03:49:32;;;;;;;17.67;11.45;;;;;;;7.00;100.00;99465.00;4989519;28;20042;-63
2022/11/18 03:52:06;;;;;;;22.52;11.60;;;;;;;6.79;100.00;99411.78;4990190;28;20299;-63
2022/11/18 03:54:33;;;;;;;16.15;10.70;;;;;;;7.12;100.00;99471.53;4989028;28;20030;-65
2022/11/18 03:57:02;;;;;;;20.15;11.95;;;;;;;6.75;100.00;99419.78;4990262;28;20386;-63
2022/11/18 03:59:34;;;;;;;19.02;10.13;;;;;;;6.90;100.00;99466.28;4989295;28;20030;-63
2022/11/18 04:02:05;;;;;;;19.85;10.43;;;;;;;6.97;100.00;99491.28;4989515;28;20421;-64
2022/11/18 04:04:31;;;;;;;21.38;10.15;;;;;;;6.45;100.00;99403.53;4989263;28;20038;-64
2022/11/18 04:07:04;;;;;;;16.52;10.52;;;;;;;6.78;100.00;99493.75;4989135;28;20038;-64
2022/11/18 04:09:35;;;;;;;16.98;11.07;;;;;;;6.26;100.00;99407.75;4990068;28;20470;-64
2022/11/18 04:12:10;;;;;;;15.75;10.55;;;;;;;6.39;100.00;99429.88;4972578;28;20034;-64
2022/11/18 04:14:37;;;;;;;20.13;11.43;;;;;;;6.64;100.00;99485.59;4989074;28;20510;-63
2022/11/18 04:17:12;;;;;;;18.25;11.38;;;;;;;6.22;100.00;99429.66;4990262;28;20085;-64
2022/11/18 04:19:38;;;;;;;18.48;11.13;;;;;;;6.52;100.00;99500.88;4988839;28;20117;-64
2022/11/18 04:22:03;;;;;;;20.63;10.90;;;;;;;6.40;100.00;99475.19;4989892;28;20159;-64
2022/11/18 04:24:29;;;;;;;17.48;11.23;;;;;;;6.16;100.00;99441.19;4989937;28;20401;-64
2022/11/18 04:26:54;;;;;;;19.13;10.27;;;;;;;6.16;100.00;99440.34;4990019;28;20058;-63
2022/11/18 04:29:19;;;;;;;19.27;10.95;;;;;;;6.52;100.00;99506.09;4989899;28;20266;-64
2022/11/18 04:31:45;;;;;;;17.33;10.38;;;;;;;6.57;100.00;99510.25;4989898;28;20046;-65
2022/11/18 04:34:10;;;;;;;19.50;10.38;;;;;;;6.61;100.00;99524.06;4988722;28;20041;-65
2022/11/18 04:36:35;;;;;;;21.45;10.98;;;;;;;6.64;100.00;99519.56;4989638;28;20043;-64
2022/11/18 04:39:01;;;;;;;22.30;11.52;;;;;;;6.30;100.00;99456.41;4989647;28;20039;-64
2022/11/18 04:41:54;;;;;;;17.13;10.93;;;;;;;6.57;100.00;99505.00;4988676;28;20026;-65
2022/11/18 04:44:11;;;;;;;19.38;10.85;;;;;;;6.70;100.00;99537.66;4988629;28;20414;-63
2022/11/18 04:46:39;;;;;;;18.13;11.00;;;;;;;6.42;100.00;99494.28;4988269;28;20056;-64
2022/11/18 04:49:04;;;;;;;21.73;11.48;;;;;;;6.70;100.00;99536.78;4988298;28;20027;-64
2022/11/18 04:51:30;;;;;;;15.95;10.48;;;;;;;6.68;100.00;99556.94;4989208;28;20107;-63
2022/11/18 04:53:55;;;;;;;23.80;11.77;;;;;;;6.68;100.00;99542.06;4989620;28;20050;-64
2022/11/18 04:56:20;;;;;;;15.45;10.55;;;;;;;6.35;100.00;99484.97;4989757;28;20031;-65
2022/11/18 04:58:46;;;;;;;17.35;10.02;;;;;;;6.71;100.00;99555.03;4989400;28;20061;-62
2022/11/18 05:01:11;;;;;;;18.02;10.90;;;;;;;6.76;100.00;99542.66;4988088;28;20148;-64
2022/11/18 05:03:36;;;;;;;18.98;9.98;;;;;;;6.47;100.00;99489.75;4989180;28;20214;-64
2022/11/18 05:06:02;;;;;;;19.17;10.43;;;;;;;6.86;100.00;99561.44;4987871;28;20060;-64
2022/11/18 05:08:27;;;;;;;15.32;10.52;;;;;;;6.88;100.00;99570.13;4989412;28;20084;-63
2022/11/18 05:12:47;;;;;;;14.10;9.90;;;;;;;6.88;100.00;99566.66;4989241;28;20031;-64
2022/11/18 05:13:38;;;;;;;16.38;9.60;;;;;;;6.86;100.00;99571.09;4989199;28;20038;-64
2022/11/18 05:16:03;;;;;;;16.38;10.32;;;;;;;6.72;100.00;99553.28;4989342;28;20486;-65
2022/11/18 05:18:28;;;;;;;19.48;10.07;;;;;;;6.77;100.00;99580.97;4989100;28;20046;-65
2022/11/18 05:20:54;;;;;;;18.00;9.63;;;;;;;6.70;100.00;99579.50;4989458;28;20038;-64
2022/11/18 05:23:19;;;;;;;17.23;10.35;;;;;;;6.64;100.00;99589.31;4989119;28;20057;-63
2022/11/18 05:25:44;;;;;;;17.20;10.77;;;;;;;6.58;100.00;99576.47;4989289;28;20042;-64
2022/11/18 05:28:10;;;;;;;17.95;11.10;;;;;;;6.50;100.00;99581.13;4988943;28;20510;-63
2022/11/18 05:30:35;;;;;;;15.00;10.82;;;;;;;6.49;100.00;99595.94;4989260;28;20065;-64
2022/11/18 05:33:00;;;;;;;16.02;9.90;;;;;;;6.45;100.00;99590.91;4988928;28;20114;-64
2022/11/18 05:35:25;;;;;;;15.27;10.13;;;;;;;6.39;100.00;99593.72;4987891;28;20109;-64
2022/11/18 05:37:51;;;;;;;19.95;11.07;;;;;;;6.02;100.00;99524.44;4987913;28;20034;-64
2022/11/18 05:40:16;;;;;;;22.52;10.95;;;;;;;6.48;100.00;99593.41;4989099;28;20397;-65
2022/11/18 05:45:25;;;;;;;21.05;11.13;;;;;;;5.79;100.00;99486.94;4988025;28;20058;-64
2022/11/18 05:48:00;;;;;;;19.20;11.05;;;;;;;6.48;100.00;99596.84;4987609;28;20471;-64
2022/11/18 05:50:25;;;;;;;22.70;12.63;;;;;;;6.48;100.00;99602.06;4989205;28;20042;-64
2022/11/18 05:52:50;;;;;;;16.80;10.60;;;;;;;6.48;100.00;99598.63;4988616;28;20316;-63
2022/11/18 05:55:16;;;;;;;19.73;11.13;;;;;;;6.13;100.00;99547.56;4990905;28;20434;-64
2022/11/18 05:57:42;;;;;;;16.50;10.82;;;;;;;6.42;100.00;99596.22;4990926;28;20038;-63
2022/11/18 06:00:08;;;;;;;19.15;11.27;;;;;;;6.40;100.00;99600.63;4991971;28;20049;-64
2022/11/18 06:02:33;;;;;;;19.45;10.77;;;;;;;6.36;100.00;99605.13;4992000;28;20038;-64
2022/11/18 06:05:00;;;;;;;18.02;9.98;;;;;;;6.12;100.00;99570.25;4992263;28;20471;-64
2022/11/18 06:07:33;;;;;;;23.60;11.93;;;;;;;5.97;100.00;99554.25;4992509;28;20482;-64
2022/11/18 06:09:59;;;;;;;20.52;11.48;;;;;;;6.25;100.00;99603.81;4992046;28;20027;-65
2022/11/18 06:12:29;;;;;;;22.05;11.80;;;;;;;6.29;100.00;99621.94;4991852;28;20038;-65
2022/11/18 06:15:01;;;;;;;15.98;9.88;;;;;;;5.58;100.00;99512.00;4990588;28;20034;-63
2022/11/18 06:17:30;;;;;;;20.13;11.95;;;;;;;6.11;100.00;99617.31;4990676;28;20084;-65
2022/11/18 06:19:56;;;;;;;20.33;11.18;;;;;;;5.78;100.00;99569.63;4992084;28;20114;-64
2022/11/18 06:22:21;;;;;;;19.98;12.00;;;;;;;6.17;100.00;99644.09;4990593;28;20130;-64
2022/11/18 06:24:46;;;;;;;26.73;12.77;;;;;;;6.03;100.00;99624.56;4991915;28;20095;-65
2022/11/18 06:27:13;;;;;;;21.50;12.63;;;;;;;6.06;100.00;99646.22;4991546;28;20324;-65
2022/11/18 06:29:39;;;;;;;21.60;12.00;;;;;;;6.12;100.00;99660.84;4991022;28;20505;-64
2022/11/18 06:32:09;;;;;;;21.65;13.27;;;;;;;6.13;100.00;99660.78;4992670;28;20038;-65
2022/11/18 06:34:36;;;;;;;23.98;12.18;;;;;;;6.11;100.00;99665.19;4990880;28;20418;-65
2022/11/18 06:37:22;;;;;;;19.27;11.85;;;;;;;6.12;100.00;99671.28;4975223;28;20558;-64
2022/11/18 06:39:47;;;;;;;20.00;12.23;;;;;;;6.13;100.00;99667.75;4993481;28;20065;-65
2022/11/18 06:45:00;;;;;;;18.73;11.20;;;;;;;5.74;100.00;99616.78;5013215;28;20080;-65
2022/11/18 06:47:26;;;;;;;20.15;12.38;;;;;;;6.10;100.00;99679.16;4996510;28;20034;-66
2022/11/18 06:49:51;;;;;;;22.52;11.73;;;;;;;6.00;100.00;99666.47;4993974;28;20041;-66
2022/11/18 06:52:18;;;;;;;27.10;12.70;;;;;;;6.15;100.00;99677.28;5010791;28;20045;-66
2022/11/18 06:54:43;;;;;;;18.92;10.93;;;;;;;6.19;100.00;99699.75;5009526;28;20090;-64
2022/11/18 06:57:08;;;;;;;20.33;12.07;;;;;;;6.10;100.00;99679.16;5008872;28;20033;-64
2022/11/18 06:59:34;;;;;;;19.85;11.50;;;;;;;6.18;100.00;99700.69;5010670;28;20393;-64
2022/11/18 07:01:59;;;;;;;17.58;10.55;;;;;;;5.93;100.00;99665.78;5009233;28;20037;-65
2022/11/18 07:04:24;;;;;;;21.15;11.18;;;;;;;6.17;100.00;99711.16;5009598;28;20033;-65
2022/11/18 07:06:49;;;;;;;19.45;10.65;;;;;;;5.76;100.00;99648.91;5010422;28;20038;-65
2022/11/18 07:09:15;;;;;;;21.92;10.65;;;;;;;6.14;100.00;99733.03;4993170;28;20034;-62
2022/11/18 07:11:41;;;;;;;17.60;10.32;;;;;;;6.19;100.00;99727.66;5010331;28;20037;-63
2022/11/18 07:14:07;;;;;;;19.23;10.52;;;;;;;6.16;100.00;99718.16;5008978;28;20026;-63
2022/11/18 07:16:34;;;;;;;15.23;10.13;;;;;;;5.84;100.00;99671.28;5009185;28;20042;-60
2022/11/18 07:18:59;;;;;;;25.63;10.63;;;;;;;5.82;100.00;99665.25;5009012;28;20497;-61
2022/11/18 07:21:27;;;;;;;19.67;10.10;;;;;;;5.89;100.00;99660.72;5009207;28;20037;-60
2022/11/18 07:23:53;;;;;;;23.48;10.48;;;;;;;6.33;100.00;99733.31;5010287;28;20038;-62
2022/11/18 07:26:19;;;;;;;19.70;10.82;;;;;;;6.44;100.00;99725.09;5010348;28;20116;-62
2022/11/18 07:28:45;;;;;;;24.92;10.35;;;;;;;6.55;100.00;99736.91;5010339;28;20192;-61
2022/11/18 07:31:18;;;;;;;17.23;9.75;;;;;;;6.32;100.00;99701.97;5006426;28;20038;-62
2022/11/18 07:33:45;;;;;;;17.65;9.45;;;;;;;6.62;100.00;99733.19;5007009;28;20133;-63
2022/11/18 07:36:18;;;;;;;23.13;10.38;;;;;;;6.71;100.00;99739.88;5005775;28;20030;-61
2022/11/18 07:38:44;;;;;;;15.50;9.10;;;;;;;6.88;100.00;99749.75;5008007;28;20079;-63
2022/11/18 07:41:12;;;;;;;17.23;8.80;;;;;;;6.55;100.00;99695.06;5008450;28;20140;-61
2022/11/18 07:43:38;;;;;;;17.92;9.93;;;;;;;6.94;100.00;99755.63;5008001;28;20033;-61
2022/11/18 07:46:09;;;;;;;21.17;8.85;;;;;;;6.96;100.00;99764.25;5008451;28;20113;-61
2022/11/18 07:48:34;;;;;;;21.77;9.65;;;;;;;6.88;100.00;99766.28;5008828;28;20038;-60
2022/11/18 07:51:00;;;;;;;16.33;8.85;;;;;;;6.88;100.00;99757.59;5008322;28;20120;-59
2022/11/18 07:53:25;;;;;;;18.95;8.50;;;;;;;6.96;100.00;99774.72;5007882;28;20086;-62
2022/11/18 07:55:50;;;;;;;19.58;8.00;;;;;;;6.80;100.00;99742.13;5008854;28;20038;-63
2022/11/18 07:58:16;;;;;;;21.65;8.65;;;;;;;7.09;100.00;99783.03;5008805;28;20061;-61
2022/11/18 08:00:41;;;;;;;17.98;8.20;;;;;;;7.06;100.00;99763.06;5008447;28;20131;-62
2022/11/18 08:03:06;;;;;;;19.60;8.45;;;;;;;7.29;100.00;99791.03;5008336;28;20114;-60
2022/11/18 08:05:32;;;;;;;15.57;8.38;;;;;;;7.25;100.00;99790.28;5008397;28;20049;-61
2022/11/18 08:07:57;;;;;;;18.58;8.25;;;;;;;7.44;100.00;99811.41;5008632;28;20438;-61
2022/11/18 08:10:23;;;;;;;16.42;7.45;;;;;;;7.54;100.00;99811.91;5008500;28;20492;-60
2022/11/18 08:12:49;;;;;;;14.82;8.05;;;;;;;7.58;100.00;99805.69;5008282;28;20049;-63
2022/11/18 08:15:14;;;;;;;14.25;7.60;;;;;;;7.61;100.00;99816.91;5008118;28;20034;-60
2022/11/18 08:17:39;;;;;;;17.17;7.90;;;;;;;7.60;100.00;99790.75;5008353;28;20044;-61
2022/11/18 08:20:05;;;;;;;18.73;8.27;;;;;;;7.38;100.00;99737.47;5008223;28;20087;-65
2022/11/18 08:22:30;;;;;;;15.85;7.65;;;;;;;7.92;100.00;99821.84;5008207;28;20034;-62
2022/11/18 08:24:56;;;;;;;17.58;7.05;;;;;;;8.01;100.00;99828.50;5007273;28;20033;-63
2022/11/18 08:27:21;;;;;;;16.70;7.18;;;;;;;7.81;100.00;99784.72;5004955;28;20456;-64
2022/11/18 08:29:46;;;;;;;18.38;7.32;;;;;;;8.15;100.00;99831.44;5006770;28;20034;-61
2022/11/18 08:32:12;;;;;;;12.93;6.75;;;;;;;7.90;100.00;99777.38;5007620;28;20137;-61
2022/11/18 08:34:37;;;;;;;16.10;7.05;;;;;;;8.34;100.00;99825.50;5006783;28;20034;-61
2022/11/18 08:37:02;;;;;;;9.45;6.15;;;;;;;8.44;100.00;99829.44;5007651;28;20034;-62
2022/11/18 08:39:28;;;;;;;11.95;7.45;;;;;;;8.10;100.00;99780.97;5005243;28;20037;-61
2022/11/18 08:41:53;;;;;;;15.23;6.20;;;;;;;8.48;100.00;99840.66;5005004;28;20063;-62
2022/11/18 08:44:18;;;;;;;13.65;5.88;;;;;;;8.40;100.00;99848.84;5007118;28;20034;-62
2022/11/18 08:46:44;;;;;;;15.85;5.68;;;;;;;8.33;100.00;99838.63;5007033;28;20044;-62
2022/11/18 08:49:10;;;;;;;14.02;5.55;;;;;;;8.29;100.00;99837.06;5007315;28;20113;-62
2022/11/18 08:51:35;;;;;;;14.88;5.10;;;;;;;8.36;100.00;99855.13;5007673;28;20044;-61
2022/11/18 08:54:00;;;;;;;13.90;6.00;;;;;;;8.43;100.00;99853.94;5007478;28;20318;-61
2022/11/18 08:56:26;;;;;;;12.23;5.07;;;;;;;8.22;100.00;99791.00;5007500;28;20045;-60
2022/11/18 08:58:51;;;;;;;13.70;5.10;;;;;;;8.20;100.00;99783.16;5022096;28;20044;-62
2022/11/18 09:01:17;;;;;;;10.70;5.00;;;;;;;8.69;100.00;99858.19;5005747;28;20121;-61
2022/11/18 09:03:42;;;;;;;13.82;4.45;;;;;;;8.70;100.00;99848.56;5007607;28;20081;-61
2022/11/18 09:06:13;;;;;;;10.00;4.25;;;;;;;8.66;100.00;99846.94;5007399;28;20140;-61
2022/11/18 09:08:39;;;;;;;15.85;6.13;;;;;;;8.70;100.00;99852.00;5007335;28;20447;-62
2022/11/18 09:11:24;;;;;;;10.45;4.35;;;;;;;8.40;100.00;99801.66;5022105;28;20479;-61
2022/11/18 09:13:57;;;;;;;9.80;4.18;;;;;;;8.64;100.00;99830.44;5005989;28;20342;-61
2022/11/18 09:16:26;;;;;;;13.75;4.57;;;;;;;8.72;100.00;99849.34;5005972;28;20038;-62
2022/11/18 09:18:53;;;;;;;6.25;3.55;;;;;;;8.80;100.00;99863.84;5007244;28;20030;-62
2022/11/18 09:21:18;;;;;;;14.63;4.65;;;;;;;8.84;100.00;99861.97;5007142;28;20029;-63
2022/11/18 09:23:44;;;;;;;10.05;3.88;;;;;;;8.90;100.00;99867.78;5007145;28;20038;-61
2022/11/18 09:26:14;;;;;;;9.65;4.07;;;;;;;8.60;100.00;99810.47;5006000;28;20454;-61
2022/11/18 09:28:40;;;;;;;7.05;4.00;;;;;;;8.72;100.00;99825.72;5023877;28;20073;-60
2022/11/18 09:31:16;;;;;;;11.70;4.03;;;;;;;8.99;100.00;99870.03;5008801;28;20068;-63
2022/11/18 09:33:42;;;;;;;7.70;3.70;;;;;;;9.12;100.00;99885.28;5010776;28;20042;-61
2022/11/18 09:36:22;;;;;;;8.32;3.92;;;;;;;8.83;100.00;99813.00;5010516;28;20042;-61
2022/11/18 09:38:47;;;;;;;11.88;5.20;;;;;;;8.92;100.00;99823.97;5010341;28;20125;-62
2022/11/18 09:41:29;;;;;;;15.10;4.70;;;;;;;9.27;100.00;99893.38;5010307;28;20510;-61
2022/11/18 09:44:13;;;;;;;11.90;3.75;;;;;;;9.32;100.00;99895.81;5009791;28;20103;-61
2022/11/18 09:46:59;;;;;;;10.65;4.40;;;;;;;9.32;100.00;99896.66;5009129;28;20053;-62
2022/11/18 09:49:28;;;;;;;7.53;3.88;;;;;;;9.03;100.00;99836.66;5009167;28;20042;-62
2022/11/18 09:51:53;;;;;;;11.50;3.75;;;;;;;8.97;100.00;99835.13;5010254;28;20040;-62
2022/11/18 09:54:21;;;;;;;8.25;3.70;;;;;;;9.28;100.00;99907.38;5010522;28;20030;-63
2022/11/18 09:56:47;;;;;;;8.43;3.95;;;;;;;9.31;100.00;99918.59;5008465;28;20535;-61
2022/11/18 09:59:14;;;;;;;11.07;4.20;;;;;;;9.35;100.00;99921.94;5024868;28;20537;-62
2022/11/18 10:01:40;;;;;;;9.15;3.63;;;;;;;9.13;100.00;99876.50;5008398;28;20034;-60
2022/11/18 10:04:12;;;;;;;10.55;4.15;;;;;;;9.42;100.00;99929.53;5010501;28;20130;-63
2022/11/18 10:06:37;;;;;;;12.88;4.63;;;;;;;9.22;100.00;99895.38;5010415;28;20450;-61
2022/11/18 10:09:12;;;;;;;10.80;4.35;;;;;;;9.48;100.00;99937.16;5010255;28;20056;-62
2022/11/18 10:12:00;;;;;;;8.52;3.40;;;;;;;9.51;100.00;99949.28;5009819;28;20442;-61
2022/11/18 10:15:03;;;;;;;7.13;3.55;;;;;;;9.63;100.00;99937.41;5008897;28;20045;-60
2022/11/18 10:18:00;;;;;;;11.80;3.55;;;;;;;9.58;100.00;99958.59;5009949;28;20050;-60
2022/11/18 10:20:54;;;;;;;8.70;4.30;;;;;;;9.58;100.00;99951.59;5009736;28;20046;-61
2022/11/18 10:23:25;;;;;;;10.10;4.07;;;;;;;9.42;100.00;99920.78;5010020;28;20385;-62
2022/11/18 10:25:52;;;;;;;11.05;4.20;;;;;;;9.48;100.00;99941.53;5024028;28;20458;-62
2022/11/18 10:28:28;;;;;;;11.20;4.75;;;;;;;9.25;100.00;99889.94;5009748;28;20050;-60
2022/11/18 10:30:53;;;;;;;15.27;3.85;;;;;;;9.60;100.00;99938.41;5009075;28;20053;-59
2022/11/18 10:33:25;;;;;;;10.38;5.43;;;;;;;9.40;100.00;99885.81;5009594;28;20030;-62
2022/11/18 10:36:08;;;;;;;9.57;4.40;;;;;;;9.85;100.00;99944.28;5009470;28;20087;-62
2022/11/18 10:38:33;;;;;;;10.13;4.20;;;;;;;9.97;100.00;99946.41;5009910;28;20501;-60
2022/11/18 10:41:01;;;;;;;13.45;4.97;;;;;;;9.87;100.00;99900.38;5009357;28;20077;-63
2022/11/18 10:43:54;;;;;;;9.45;5.05;;;;;;;10.37;100.00;99963.91;5009540;28;20419;-59
2022/11/18 10:46:30;;;;;;;10.48;4.20;;;;;;;10.46;100.00;99971.38;5009598;28;20062;-61
2022/11/18 10:49:07;;;;;;;13.20;4.78;;;;;;;10.46;100.00;99981.91;5009370;28;20109;-61
2022/11/18 10:51:33;;;;;;;10.45;4.43;;;;;;;10.10;100.00;99909.88;5006737;28;20059;-60
2022/11/18 10:54:14;;;;;;;8.50;4.03;;;;;;;10.38;100.00;99955.09;5007679;28;20111;-61
2022/11/18 10:56:54;;;;;;;8.35;3.85;;;;;;;10.47;100.00;99985.41;5009259;28;20139;-62
2022/11/18 10:59:35;;;;;;;11.15;4.85;;;;;;;10.36;100.00;99990.28;5008478;28;20037;-62
2022/11/18 11:02:22;;;;;;;11.20;4.68;;;;;;;10.28;100.00;99993.25;5007796;28;20363;-60
2022/11/18 11:04:49;;;;;;;8.75;4.82;;;;;;;9.87;100.00;99933.69;5009592;28;20046;-61
2022/11/18 11:07:23;;;;;;;13.23;4.30;;;;;;;10.14;100.00;99969.34;5024464;28;20087;-61
2022/11/18 11:10:19;;;;;;;10.93;5.13;;;;;;;10.10;100.00;99957.19;5009020;28;20501;-62
2022/11/18 11:12:50;;;;;;;7.15;4.32;;;;;;;9.94;100.00;99927.25;5008911;28;20033;-62
2022/11/18 11:15:20;;;;;;;13.15;4.68;;;;;;;10.26;100.00;99988.97;5024609;28;20038;-62
2022/11/18 11:20:41;;;;;;;7.97;4.00;;;;;;;10.04;100.00;99939.09;5008030;28;20052;-61
2022/11/18 11:23:11;;;;;;;11.40;4.80;;;;;;;10.44;100.00;99996.91;5008658;28;20034;-63
2022/11/18 11:26:03;;;;;;;9.75;5.35;;;;;;;10.45;100.00;100003.03;5023416;28;20109;-62
2022/11/18 11:28:45;;;;;;;11.25;6.15;;;;;;;10.09;100.00;99966.88;5008921;28;20133;-60
2022/11/18 11:31:35;;;;;;;14.90;6.53;;;;;;;10.25;100.00;100008.31;5006069;28;20646;-61
2022/11/18 11:34:10;;;;;;;13.95;6.07;;;;;;;9.90;100.00;99952.81;5009034;28;20034;-62
2022/11/18 11:36:50;;;;;;;11.15;6.28;;;;;;;10.17;100.00;100021.78;5008741;28;20385;-60
2022/11/18 11:39:37;;;;;;;12.13;6.35;;;;;;;10.23;100.00;100012.78;5007121;28;20045;-61
2022/11/18 11:42:34;;;;;;;11.55;6.50;;;;;;;9.85;100.00;99944.28;5008587;28;20062;-61
2022/11/18 11:45:18;;;;;;;9.65;6.05;;;;;;;10.23;100.00;99986.47;5023447;28;20034;-61
2022/11/18 11:48:01;;;;;;;14.07;6.10;;;;;;;10.42;100.00;100017.16;5008643;28;20061;-60